sensor_id;sensor_type;location;lat;lon;timestamp;P1;durP1;ratioP1;P2;durP2;ratioP2
49710;SDS011;35602;44.534;18.696;2023-06-14T00:03:46;8.00;;;7.20;;
49710;SDS011;35602;44.534;18.696;2023-06-14T00:08:49;8.00;;;7.20;;
49710;SDS011;35602;44.534;18.696;2023-06-14T00:13:51;8.00;;;7.22;;
49710;SDS011;35602;44.534;18.696;2023-06-14T00:18:52;9.30;;;7.30;;
49710;SDS011;35602;44.534;18.696;2023-06-14T00:23:52;8.73;;;6.53;;
49710;SDS011;35602;44.534;18.696;2023-06-14T00:28:53;7.70;;;6.90;;
49710;SDS011;35602;44.534;18.696;2023-06-14T00:33:55;7.43;;;6.72;;
49710;SDS011;35602;44.534;18.696;2023-06-14T00:38:55;7.95;;;7.15;;
49710;SDS011;35602;44.534;18.696;2023-06-14T00:43:56;7.68;;;6.68;;
49710;SDS011;35602;44.534;18.696;2023-06-14T00:48:58;7.40;;;6.70;;
49710;SDS011;35602;44.534;18.696;2023-06-14T00:54:00;7.57;;;6.87;;
49710;SDS011;35602;44.534;18.696;2023-06-14T00:59:01;6.43;;;5.82;;
49710;SDS011;35602;44.534;18.696;2023-06-14T01:04:03;6.82;;;6.22;;
49710;SDS011;35602;44.534;18.696;2023-06-14T01:17:51;7.85;;;7.03;;
49710;SDS011;35602;44.534;18.696;2023-06-14T01:22:53;7.20;;;6.50;;
49710;SDS011;35602;44.534;18.696;2023-06-14T01:27:55;7.03;;;6.35;;
49710;SDS011;35602;44.534;18.696;2023-06-14T01:33:03;7.35;;;6.32;;
49710;SDS011;35602;44.534;18.696;2023-06-14T01:38:06;6.85;;;6.15;;
49710;SDS011;35602;44.534;18.696;2023-06-14T01:43:08;7.47;;;6.78;;
49710;SDS011;35602;44.534;18.696;2023-06-14T01:48:11;7.37;;;6.40;;
49710;SDS011;35602;44.534;18.696;2023-06-14T01:53:12;6.55;;;5.95;;
49710;SDS011;35602;44.534;18.696;2023-06-14T01:58:14;6.95;;;6.25;;
49710;SDS011;35602;44.534;18.696;2023-06-14T02:03:18;6.87;;;6.18;;
49710;SDS011;35602;44.534;18.696;2023-06-14T02:08:19;7.00;;;6.30;;
49710;SDS011;35602;44.534;18.696;2023-06-14T02:13:20;6.75;;;6.10;;
49710;SDS011;35602;44.534;18.696;2023-06-14T02:18:21;9.90;;;6.03;;
49710;SDS011;35602;44.534;18.696;2023-06-14T02:23:22;6.57;;;5.97;;
49710;SDS011;35602;44.534;18.696;2023-06-14T02:28:23;6.57;;;5.80;;
49710;SDS011;35602;44.534;18.696;2023-06-14T02:33:23;7.87;;;6.00;;
49710;SDS011;35602;44.534;18.696;2023-06-14T02:38:25;6.80;;;6.12;;
49710;SDS011;35602;44.534;18.696;2023-06-14T02:43:26;7.22;;;6.45;;
49710;SDS011;35602;44.534;18.696;2023-06-14T02:48:30;6.90;;;6.25;;
49710;SDS011;35602;44.534;18.696;2023-06-14T02:53:31;6.30;;;5.70;;
49710;SDS011;35602;44.534;18.696;2023-06-14T02:58:31;6.30;;;5.60;;
49710;SDS011;35602;44.534;18.696;2023-06-14T03:03:33;6.55;;;5.95;;
49710;SDS011;35602;44.534;18.696;2023-06-14T03:08:34;7.15;;;6.45;;
49710;SDS011;35602;44.534;18.696;2023-06-14T03:13:38;6.70;;;6.00;;
49710;SDS011;35602;44.534;18.696;2023-06-14T03:18:40;6.10;;;5.60;;
49710;SDS011;35602;44.534;18.696;2023-06-14T03:23:42;7.28;;;6.57;;
49710;SDS011;35602;44.534;18.696;2023-06-14T03:28:46;7.12;;;6.43;;
49710;SDS011;35602;44.534;18.696;2023-06-14T03:33:49;6.68;;;6.07;;
49710;SDS011;35602;44.534;18.696;2023-06-14T03:38:50;7.00;;;6.30;;
49710;SDS011;35602;44.534;18.696;2023-06-14T03:43:51;6.40;;;5.80;;
49710;SDS011;35602;44.534;18.696;2023-06-14T03:48:52;6.45;;;5.85;;
49710;SDS011;35602;44.534;18.696;2023-06-14T03:53:53;6.25;;;5.65;;
49710;SDS011;35602;44.534;18.696;2023-06-14T03:58:55;6.50;;;5.90;;
49710;SDS011;35602;44.534;18.696;2023-06-14T04:03:56;6.95;;;6.25;;
49710;SDS011;35602;44.534;18.696;2023-06-14T04:08:58;6.10;;;5.57;;
49710;SDS011;35602;44.534;18.696;2023-06-14T04:14:03;6.93;;;5.80;;
49710;SDS011;35602;44.534;18.696;2023-06-14T04:19:05;6.40;;;5.78;;
49710;SDS011;35602;44.534;18.696;2023-06-14T04:24:06;5.65;;;5.12;;
49710;SDS011;35602;44.534;18.696;2023-06-14T04:29:13;6.47;;;5.87;;
49710;SDS011;35602;44.534;18.696;2023-06-14T04:34:16;8.30;;;5.90;;
49710;SDS011;35602;44.534;18.696;2023-06-14T04:39:17;6.00;;;5.50;;
49710;SDS011;35602;44.534;18.696;2023-06-14T04:44:19;6.57;;;5.50;;
49710;SDS011;35602;44.534;18.696;2023-06-14T04:49:20;7.00;;;5.18;;
49710;SDS011;35602;44.534;18.696;2023-06-14T04:54:23;6.25;;;5.65;;
49710;SDS011;35602;44.534;18.696;2023-06-14T04:59:27;6.12;;;5.50;;
49710;SDS011;35602;44.534;18.696;2023-06-14T05:04:28;6.12;;;5.53;;
49710;SDS011;35602;44.534;18.696;2023-06-14T05:09:29;6.18;;;5.57;;
49710;SDS011;35602;44.534;18.696;2023-06-14T05:14:30;6.72;;;5.75;;
49710;SDS011;35602;44.534;18.696;2023-06-14T05:19:30;6.43;;;5.85;;
49710;SDS011;35602;44.534;18.696;2023-06-14T05:24:31;6.60;;;5.95;;
49710;SDS011;35602;44.534;18.696;2023-06-14T05:29:32;6.82;;;6.03;;
49710;SDS011;35602;44.534;18.696;2023-06-14T05:34:33;7.28;;;6.32;;
49710;SDS011;35602;44.534;18.696;2023-06-14T05:39:34;6.43;;;5.85;;
49710;SDS011;35602;44.534;18.696;2023-06-14T05:44:35;6.35;;;5.75;;
49710;SDS011;35602;44.534;18.696;2023-06-14T05:49:35;7.32;;;6.55;;
49710;SDS011;35602;44.534;18.696;2023-06-14T05:54:36;7.20;;;5.90;;
49710;SDS011;35602;44.534;18.696;2023-06-14T05:59:37;7.35;;;6.60;;
49710;SDS011;35602;44.534;18.696;2023-06-14T06:04:38;7.05;;;6.43;;
49710;SDS011;35602;44.534;18.696;2023-06-14T06:09:39;7.72;;;7.03;;
49710;SDS011;35602;44.534;18.696;2023-06-14T06:14:39;7.03;;;6.10;;
49710;SDS011;35602;44.534;18.696;2023-06-14T06:19:41;7.00;;;6.30;;
49710;SDS011;35602;44.534;18.696;2023-06-14T06:24:41;7.82;;;6.95;;
49710;SDS011;35602;44.534;18.696;2023-06-14T06:29:42;8.25;;;6.60;;
49710;SDS011;35602;44.534;18.696;2023-06-14T06:34:46;7.68;;;6.53;;
49710;SDS011;35602;44.534;18.696;2023-06-14T06:39:47;8.30;;;7.10;;
49710;SDS011;35602;44.534;18.696;2023-06-14T06:44:48;8.40;;;6.95;;
49710;SDS011;35602;44.534;18.696;2023-06-14T06:49:48;7.72;;;6.95;;
49710;SDS011;35602;44.534;18.696;2023-06-14T06:54:49;7.60;;;6.90;;
49710;SDS011;35602;44.534;18.696;2023-06-14T06:59:54;9.70;;;6.90;;
49710;SDS011;35602;44.534;18.696;2023-06-14T07:04:55;8.57;;;7.30;;
49710;SDS011;35602;44.534;18.696;2023-06-14T07:09:56;8.25;;;6.47;;
49710;SDS011;35602;44.534;18.696;2023-06-14T07:14:57;7.87;;;6.95;;
49710;SDS011;35602;44.534;18.696;2023-06-14T07:19:58;9.25;;;7.70;;
49710;SDS011;35602;44.534;18.696;2023-06-14T07:24:59;11.10;;;8.32;;
49710;SDS011;35602;44.534;18.696;2023-06-14T07:30:01;9.50;;;8.02;;
49710;SDS011;35602;44.534;18.696;2023-06-14T07:35:05;9.35;;;7.75;;
49710;SDS011;35602;44.534;18.696;2023-06-14T07:40:07;9.60;;;8.13;;
49710;SDS011;35602;44.534;18.696;2023-06-14T07:45:11;9.35;;;8.38;;
49710;SDS011;35602;44.534;18.696;2023-06-14T07:50:15;8.85;;;7.95;;
49710;SDS011;35602;44.534;18.696;2023-06-14T07:55:16;10.38;;;7.93;;
49710;SDS011;35602;44.534;18.696;2023-06-14T08:00:17;9.15;;;7.78;;
49710;SDS011;35602;44.534;18.696;2023-06-14T08:05:20;10.45;;;9.05;;
49710;SDS011;35602;44.534;18.696;2023-06-14T08:10:21;9.38;;;8.40;;
49710;SDS011;35602;44.534;18.696;2023-06-14T08:15:22;12.88;;;9.27;;
49710;SDS011;35602;44.534;18.696;2023-06-14T08:20:23;10.20;;;8.90;;
49710;SDS011;35602;44.534;18.696;2023-06-14T08:25:25;10.30;;;8.95;;
49710;SDS011;35602;44.534;18.696;2023-06-14T08:30:26;11.57;;;9.25;;
49710;SDS011;35602;44.534;18.696;2023-06-14T08:35:27;10.25;;;9.13;;
49710;SDS011;35602;44.534;18.696;2023-06-14T08:40:29;10.05;;;9.05;;
49710;SDS011;35602;44.534;18.696;2023-06-14T08:45:31;10.75;;;9.65;;
49710;SDS011;35602;44.534;18.696;2023-06-14T08:50:32;13.07;;;10.02;;
49710;SDS011;35602;44.534;18.696;2023-06-14T08:55:35;13.50;;;10.48;;
49710;SDS011;35602;44.534;18.696;2023-06-14T09:00:38;14.98;;;10.80;;
49710;SDS011;35602;44.534;18.696;2023-06-14T09:05:41;13.75;;;11.55;;
49710;SDS011;35602;44.534;18.696;2023-06-14T09:10:43;16.45;;;10.73;;
49710;SDS011;35602;44.534;18.696;2023-06-14T09:15:45;14.43;;;11.60;;
49710;SDS011;35602;44.534;18.696;2023-06-14T09:20:46;17.30;;;11.80;;
49710;SDS011;35602;44.534;18.696;2023-06-14T09:25:48;12.95;;;11.52;;
49710;SDS011;35602;44.534;18.696;2023-06-14T09:30:49;14.80;;;11.77;;
49710;SDS011;35602;44.534;18.696;2023-06-14T09:35:53;13.52;;;12.10;;
49710;SDS011;35602;44.534;18.696;2023-06-14T09:40:58;13.82;;;12.27;;
49710;SDS011;35602;44.534;18.696;2023-06-14T09:46:00;14.93;;;12.30;;
49710;SDS011;35602;44.534;18.696;2023-06-14T09:51:01;14.87;;;12.73;;
49710;SDS011;35602;44.534;18.696;2023-06-14T09:56:05;14.13;;;12.25;;
49710;SDS011;35602;44.534;18.696;2023-06-14T10:01:07;14.25;;;12.75;;
49710;SDS011;35602;44.534;18.696;2023-06-14T10:06:10;15.52;;;12.90;;
49710;SDS011;35602;44.534;18.696;2023-06-14T10:11:12;14.32;;;12.30;;
49710;SDS011;35602;44.534;18.696;2023-06-14T10:16:18;15.98;;;12.75;;
49710;SDS011;35602;44.534;18.696;2023-06-14T10:27:05;17.12;;;13.45;;
49710;SDS011;35602;44.534;18.696;2023-06-14T10:32:10;16.58;;;13.60;;
49710;SDS011;35602;44.534;18.696;2023-06-14T10:37:11;16.87;;;13.62;;
49710;SDS011;35602;44.534;18.696;2023-06-14T10:42:14;15.95;;;14.07;;
49710;SDS011;35602;44.534;18.696;2023-06-14T10:47:23;16.73;;;14.07;;
49710;SDS011;35602;44.534;18.696;2023-06-14T10:52:28;15.20;;;13.60;;
49710;SDS011;35602;44.534;18.696;2023-06-14T10:57:36;15.93;;;13.43;;
49710;SDS011;35602;44.534;18.696;2023-06-14T11:02:52;17.55;;;14.10;;
49710;SDS011;35602;44.534;18.696;2023-06-14T11:08:46;17.42;;;13.38;;
49710;SDS011;35602;44.534;18.696;2023-06-14T11:17:03;18.27;;;15.15;;
49710;SDS011;35602;44.534;18.696;2023-06-14T11:22:04;17.60;;;13.93;;
49710;SDS011;35602;44.534;18.696;2023-06-14T11:27:06;16.85;;;14.07;;
49710;SDS011;35602;44.534;18.696;2023-06-14T11:32:07;16.33;;;13.62;;
49710;SDS011;35602;44.534;18.696;2023-06-14T11:37:12;16.65;;;13.85;;
49710;SDS011;35602;44.534;18.696;2023-06-14T11:42:14;17.15;;;14.52;;
49710;SDS011;35602;44.534;18.696;2023-06-14T11:47:16;17.83;;;13.73;;
49710;SDS011;35602;44.534;18.696;2023-06-14T11:52:18;14.13;;;12.68;;
49710;SDS011;35602;44.534;18.696;2023-06-14T11:57:19;16.33;;;12.95;;
49710;SDS011;35602;44.534;18.696;2023-06-14T12:02:21;15.15;;;13.18;;
49710;SDS011;35602;44.534;18.696;2023-06-14T12:07:22;17.55;;;13.55;;
49710;SDS011;35602;44.534;18.696;2023-06-14T12:12:24;16.50;;;13.80;;
49710;SDS011;35602;44.534;18.696;2023-06-14T12:17:26;15.45;;;13.75;;
49710;SDS011;35602;44.534;18.696;2023-06-14T12:22:33;17.17;;;14.30;;
49710;SDS011;35602;44.534;18.696;2023-06-14T12:27:34;14.40;;;12.35;;
49710;SDS011;35602;44.534;18.696;2023-06-14T12:32:38;14.50;;;12.82;;
49710;SDS011;35602;44.534;18.696;2023-06-14T12:37:38;16.37;;;13.68;;
49710;SDS011;35602;44.534;18.696;2023-06-14T12:42:40;15.35;;;13.35;;
49710;SDS011;35602;44.534;18.696;2023-06-14T12:47:41;16.62;;;13.70;;
49710;SDS011;35602;44.534;18.696;2023-06-14T12:52:42;17.23;;;12.98;;
49710;SDS011;35602;44.534;18.696;2023-06-14T12:57:43;16.25;;;12.23;;
49710;SDS011;35602;44.534;18.696;2023-06-14T13:02:44;15.20;;;12.30;;
49710;SDS011;35602;44.534;18.696;2023-06-14T13:07:45;19.35;;;12.63;;
49710;SDS011;35602;44.534;18.696;2023-06-14T13:12:45;14.80;;;12.57;;
49710;SDS011;35602;44.534;18.696;2023-06-14T13:17:49;17.55;;;12.48;;
49710;SDS011;35602;44.534;18.696;2023-06-14T13:22:50;14.68;;;12.25;;
49710;SDS011;35602;44.534;18.696;2023-06-14T13:27:51;16.65;;;12.85;;
49710;SDS011;35602;44.534;18.696;2023-06-14T13:32:52;16.17;;;12.15;;
49710;SDS011;35602;44.534;18.696;2023-06-14T13:37:53;16.27;;;12.95;;
49710;SDS011;35602;44.534;18.696;2023-06-14T13:42:56;15.25;;;12.80;;
49710;SDS011;35602;44.534;18.696;2023-06-14T13:47:57;16.52;;;12.82;;
49710;SDS011;35602;44.534;18.696;2023-06-14T13:52:58;15.68;;;12.10;;
49710;SDS011;35602;44.534;18.696;2023-06-14T13:57:59;14.38;;;12.23;;
49710;SDS011;35602;44.534;18.696;2023-06-14T14:03:00;15.32;;;12.68;;
49710;SDS011;35602;44.534;18.696;2023-06-14T14:08:01;15.32;;;11.80;;
49710;SDS011;35602;44.534;18.696;2023-06-14T14:13:02;15.52;;;12.37;;
49710;SDS011;35602;44.534;18.696;2023-06-14T14:18:03;13.25;;;11.85;;
49710;SDS011;35602;44.534;18.696;2023-06-14T14:23:07;15.00;;;12.68;;
49710;SDS011;35602;44.534;18.696;2023-06-14T14:28:08;15.20;;;12.55;;
49710;SDS011;35602;44.534;18.696;2023-06-14T14:33:08;15.73;;;12.15;;
49710;SDS011;35602;44.534;18.696;2023-06-14T14:38:12;12.98;;;11.35;;
49710;SDS011;35602;44.534;18.696;2023-06-14T14:43:14;14.35;;;11.70;;
49710;SDS011;35602;44.534;18.696;2023-06-14T14:48:15;15.48;;;12.25;;
49710;SDS011;35602;44.534;18.696;2023-06-14T14:53:15;13.90;;;11.65;;
49710;SDS011;35602;44.534;18.696;2023-06-14T14:58:16;14.13;;;12.50;;
49710;SDS011;35602;44.534;18.696;2023-06-14T15:03:18;14.27;;;11.38;;
49710;SDS011;35602;44.534;18.696;2023-06-14T15:08:19;13.75;;;12.30;;
49710;SDS011;35602;44.534;18.696;2023-06-14T15:13:20;13.50;;;11.80;;
49710;SDS011;35602;44.534;18.696;2023-06-14T15:18:23;13.32;;;11.93;;
49710;SDS011;35602;44.534;18.696;2023-06-14T15:23:24;14.20;;;11.23;;
49710;SDS011;35602;44.534;18.696;2023-06-14T15:28:24;13.20;;;11.90;;
49710;SDS011;35602;44.534;18.696;2023-06-14T15:33:28;14.45;;;12.37;;
49710;SDS011;35602;44.534;18.696;2023-06-14T15:38:29;13.95;;;12.07;;
49710;SDS011;35602;44.534;18.696;2023-06-14T15:43:30;13.48;;;10.77;;
49710;SDS011;35602;44.534;18.696;2023-06-14T15:48:31;13.30;;;11.90;;
49710;SDS011;35602;44.534;18.696;2023-06-14T15:53:32;15.77;;;12.18;;
49710;SDS011;35602;44.534;18.696;2023-06-14T15:58:34;13.93;;;12.02;;
49710;SDS011;35602;44.534;18.696;2023-06-14T16:03:35;12.93;;;11.10;;
49710;SDS011;35602;44.534;18.696;2023-06-14T16:08:36;13.77;;;11.20;;
49710;SDS011;35602;44.534;18.696;2023-06-14T16:13:37;14.43;;;12.00;;
49710;SDS011;35602;44.534;18.696;2023-06-14T16:18:40;13.18;;;11.77;;
49710;SDS011;35602;44.534;18.696;2023-06-14T16:23:41;12.75;;;10.80;;
49710;SDS011;35602;44.534;18.696;2023-06-14T16:28:42;12.70;;;11.38;;
49710;SDS011;35602;44.534;18.696;2023-06-14T16:33:44;12.77;;;11.32;;
49710;SDS011;35602;44.534;18.696;2023-06-14T16:38:45;12.37;;;11.07;;
49710;SDS011;35602;44.534;18.696;2023-06-14T16:43:49;13.20;;;11.80;;
49710;SDS011;35602;44.534;18.696;2023-06-14T16:48:49;12.68;;;11.38;;
49710;SDS011;35602;44.534;18.696;2023-06-14T16:53:51;13.18;;;11.77;;
49710;SDS011;35602;44.534;18.696;2023-06-14T16:58:56;12.85;;;11.35;;
49710;SDS011;35602;44.534;18.696;2023-06-14T17:03:58;12.37;;;11.07;;
49710;SDS011;35602;44.534;18.696;2023-06-14T17:08:58;14.48;;;12.13;;
49710;SDS011;35602;44.534;18.696;2023-06-14T17:13:59;13.65;;;11.63;;
49710;SDS011;35602;44.534;18.696;2023-06-14T17:19:00;12.73;;;11.32;;
49710;SDS011;35602;44.534;18.696;2023-06-14T17:24:04;13.15;;;11.75;;
49710;SDS011;35602;44.534;18.696;2023-06-14T17:29:05;12.80;;;11.38;;
49710;SDS011;35602;44.534;18.696;2023-06-14T17:34:06;12.48;;;11.23;;
49710;SDS011;35602;44.534;18.696;2023-06-14T17:39:07;12.90;;;11.60;;
49710;SDS011;35602;44.534;18.696;2023-06-14T17:44:11;14.35;;;11.38;;
49710;SDS011;35602;44.534;18.696;2023-06-14T17:49:12;14.57;;;11.77;;
49710;SDS011;35602;44.534;18.696;2023-06-14T17:54:13;12.37;;;11.15;;
49710;SDS011;35602;44.534;18.696;2023-06-14T17:59:15;12.00;;;10.23;;
49710;SDS011;35602;44.534;18.696;2023-06-14T18:04:16;12.23;;;10.27;;
49710;SDS011;35602;44.534;18.696;2023-06-14T18:09:17;12.90;;;10.93;;
49710;SDS011;35602;44.534;18.696;2023-06-14T18:14:18;13.00;;;11.63;;
49710;SDS011;35602;44.534;18.696;2023-06-14T18:19:18;13.05;;;11.63;;
49710;SDS011;35602;44.534;18.696;2023-06-14T18:24:19;13.27;;;11.85;;
49710;SDS011;35602;44.534;18.696;2023-06-14T18:29:20;14.75;;;11.75;;
49710;SDS011;35602;44.534;18.696;2023-06-14T18:34:21;12.55;;;11.25;;
49710;SDS011;35602;44.534;18.696;2023-06-14T18:39:23;12.73;;;11.18;;
49710;SDS011;35602;44.534;18.696;2023-06-14T18:44:24;14.50;;;12.30;;
49710;SDS011;35602;44.534;18.696;2023-06-14T18:49:25;13.30;;;11.65;;
49710;SDS011;35602;44.534;18.696;2023-06-14T18:54:26;14.73;;;11.63;;
49710;SDS011;35602;44.534;18.696;2023-06-14T18:59:27;13.75;;;12.07;;
49710;SDS011;35602;44.534;18.696;2023-06-14T19:04:28;12.45;;;11.15;;
49710;SDS011;35602;44.534;18.696;2023-06-14T19:09:28;13.32;;;11.93;;
49710;SDS011;35602;44.534;18.696;2023-06-14T19:14:32;13.02;;;11.60;;
49710;SDS011;35602;44.534;18.696;2023-06-14T19:19:33;12.95;;;11.50;;
49710;SDS011;35602;44.534;18.696;2023-06-14T19:24:34;13.30;;;11.12;;
49710;SDS011;35602;44.534;18.696;2023-06-14T19:29:35;12.40;;;11.00;;
49710;SDS011;35602;44.534;18.696;2023-06-14T19:34:36;13.05;;;11.27;;
49710;SDS011;35602;44.534;18.696;2023-06-14T19:39:42;13.73;;;11.38;;
49710;SDS011;35602;44.534;18.696;2023-06-14T19:44:46;12.82;;;11.43;;
49710;SDS011;35602;44.534;18.696;2023-06-14T19:49:47;13.68;;;11.23;;
49710;SDS011;35602;44.534;18.696;2023-06-14T19:54:47;12.73;;;11.40;;
49710;SDS011;35602;44.534;18.696;2023-06-14T19:59:48;13.18;;;11.32;;
49710;SDS011;35602;44.534;18.696;2023-06-14T20:04:49;13.07;;;11.63;;
49710;SDS011;35602;44.534;18.696;2023-06-14T20:09:50;11.43;;;10.32;;
49710;SDS011;35602;44.534;18.696;2023-06-14T20:14:51;11.68;;;10.40;;
49710;SDS011;35602;44.534;18.696;2023-06-14T20:19:52;12.55;;;11.30;;
49710;SDS011;35602;44.534;18.696;2023-06-14T20:24:53;12.85;;;10.88;;
49710;SDS011;35602;44.534;18.696;2023-06-14T20:29:53;13.93;;;11.27;;
49710;SDS011;35602;44.534;18.696;2023-06-14T20:34:55;12.13;;;10.82;;
49710;SDS011;35602;44.534;18.696;2023-06-14T20:39:56;13.85;;;12.10;;
49710;SDS011;35602;44.534;18.696;2023-06-14T20:45:03;12.47;;;10.67;;
49710;SDS011;35602;44.534;18.696;2023-06-14T20:50:05;12.68;;;11.38;;
49710;SDS011;35602;44.534;18.696;2023-06-14T20:55:11;12.15;;;10.88;;
49710;SDS011;35602;44.534;18.696;2023-06-14T21:00:12;12.80;;;10.30;;
49710;SDS011;35602;44.534;18.696;2023-06-14T21:05:14;12.93;;;11.02;;
49710;SDS011;35602;44.534;18.696;2023-06-14T21:10:15;13.23;;;10.70;;
49710;SDS011;35602;44.534;18.696;2023-06-14T21:15:16;13.02;;;11.12;;
49710;SDS011;35602;44.534;18.696;2023-06-14T21:20:17;11.35;;;10.18;;
49710;SDS011;35602;44.534;18.696;2023-06-14T21:25:17;11.95;;;10.73;;
49710;SDS011;35602;44.534;18.696;2023-06-14T21:30:20;12.00;;;10.70;;
49710;SDS011;35602;44.534;18.696;2023-06-14T21:35:33;11.30;;;10.05;;
49710;SDS011;35602;44.534;18.696;2023-06-14T21:40:33;11.98;;;10.65;;
49710;SDS011;35602;44.534;18.696;2023-06-14T21:45:34;13.20;;;10.63;;
49710;SDS011;35602;44.534;18.696;2023-06-14T21:50:36;12.48;;;10.60;;
49710;SDS011;35602;44.534;18.696;2023-06-14T21:55:37;10.95;;;9.85;;
49710;SDS011;35602;44.534;18.696;2023-06-14T22:00:38;12.73;;;10.60;;
49710;SDS011;35602;44.534;18.696;2023-06-14T22:05:39;12.68;;;10.60;;
49710;SDS011;35602;44.534;18.696;2023-06-14T22:10:42;11.50;;;10.15;;
49710;SDS011;35602;44.534;18.696;2023-06-14T22:15:43;11.80;;;10.48;;
49710;SDS011;35602;44.534;18.696;2023-06-14T22:20:45;11.12;;;9.93;;
49710;SDS011;35602;44.534;18.696;2023-06-14T22:25:47;12.30;;;10.25;;
49710;SDS011;35602;44.534;18.696;2023-06-14T22:30:48;11.48;;;10.25;;
49710;SDS011;35602;44.534;18.696;2023-06-14T22:35:48;11.93;;;10.48;;
49710;SDS011;35602;44.534;18.696;2023-06-14T22:40:49;11.80;;;10.65;;
49710;SDS011;35602;44.534;18.696;2023-06-14T22:45:50;11.48;;;10.07;;
49710;SDS011;35602;44.534;18.696;2023-06-14T22:50:51;10.45;;;9.45;;
49710;SDS011;35602;44.534;18.696;2023-06-14T22:55:52;10.95;;;9.85;;
49710;SDS011;35602;44.534;18.696;2023-06-14T23:00:53;10.63;;;9.52;;
49710;SDS011;35602;44.534;18.696;2023-06-14T23:05:54;11.10;;;9.75;;
49710;SDS011;35602;44.534;18.696;2023-06-14T23:10:58;11.02;;;9.93;;
49710;SDS011;35602;44.534;18.696;2023-06-14T23:16:02;10.20;;;9.20;;
49710;SDS011;35602;44.534;18.696;2023-06-14T23:21:03;10.63;;;9.20;;
49710;SDS011;35602;44.534;18.696;2023-06-14T23:26:05;10.43;;;9.20;;
49710;SDS011;35602;44.534;18.696;2023-06-14T23:31:07;9.93;;;8.93;;
49710;SDS011;35602;44.534;18.696;2023-06-14T23:36:08;10.48;;;9.20;;
49710;SDS011;35602;44.534;18.696;2023-06-14T23:41:09;11.18;;;9.98;;
49710;SDS011;35602;44.534;18.696;2023-06-14T23:46:10;10.50;;;9.40;;
49710;SDS011;35602;44.534;18.696;2023-06-14T23:51:11;10.45;;;9.40;;
49710;SDS011;35602;44.534;18.696;2023-06-14T23:56:12;10.15;;;8.95;;
